createdAt,value
2023-01-01T00:00:09.792Z,14.40
2023-01-01T00:01:09.768Z,14.00
2023-01-01T00:02:09.953Z,14.30
2023-01-01T00:03:09.735Z,14.00
2023-01-01T00:04:09.784Z,17.50
2023-01-01T00:05:09.717Z,12.30
2023-01-01T00:06:09.708Z,16.80
2023-01-01T00:07:09.698Z,14.60
2023-01-01T00:08:09.837Z,15.40
2023-01-01T00:09:09.663Z,19.00
2023-01-01T00:10:09.638Z,15.80
2023-01-01T00:11:09.636Z,12.50
2023-01-01T00:12:09.620Z,14.10
2023-01-01T00:13:09.616Z,19.70
2023-01-01T00:14:12.539Z,21.30
2023-01-01T00:15:09.576Z,21.80
2023-01-01T00:16:09.656Z,17.50
2023-01-01T00:17:09.566Z,17.80
2023-01-01T00:18:09.535Z,21.60
2023-01-01T00:19:09.579Z,13.50
2023-01-01T00:20:09.518Z,16.50
2023-01-01T00:21:09.527Z,22.30
2023-01-01T00:22:43.630Z,16.10
2023-01-01T00:23:10.478Z,25.00
2023-01-01T00:24:09.466Z,16.70
2023-01-01T00:25:09.625Z,18.90
2023-01-01T00:26:09.426Z,19.60
2023-01-01T00:27:09.618Z,16.50
2023-01-01T00:28:09.403Z,25.80
2023-01-01T00:29:09.398Z,20.00
2023-01-01T00:30:09.372Z,15.90
2023-01-01T00:31:09.401Z,17.70
2023-01-01T00:32:11.655Z,17.60
2023-01-01T00:33:09.344Z,21.10
2023-01-01T00:34:09.313Z,18.30
2023-01-01T00:35:09.445Z,16.30
2023-01-01T00:36:09.292Z,16.80
2023-01-01T00:37:09.286Z,15.30
2023-01-01T00:38:09.259Z,15.70
2023-01-01T00:39:09.253Z,16.70
2023-01-01T00:40:09.414Z,17.20
2023-01-01T00:41:09.234Z,19.70
2023-01-01T00:42:09.264Z,17.30
2023-01-01T00:43:09.193Z,20.00
2023-01-01T00:44:09.202Z,18.60
2023-01-01T00:45:09.186Z,18.60
2023-01-01T00:46:09.213Z,17.40
2023-01-01T00:47:09.223Z,19.50
2023-01-01T00:48:09.142Z,15.30
2023-01-01T00:49:09.134Z,19.00
2023-01-01T00:50:09.111Z,17.20
2023-01-01T00:51:09.109Z,18.80
2023-01-01T00:52:09.103Z,16.90
2023-01-01T00:53:09.072Z,20.80
2023-01-01T00:54:09.059Z,19.80
2023-01-01T00:55:09.071Z,16.60
2023-01-01T00:56:09.031Z,19.30
2023-01-01T00:57:09.192Z,25.80
2023-01-01T00:58:09.001Z,17.20
2023-01-01T00:59:09.169Z,15.30
2023-01-01T01:00:08.987Z,19.60
2023-01-01T01:01:09.041Z,14.70
2023-01-01T01:02:09.125Z,17.90
2023-01-01T01:03:08.966Z,15.30
2023-01-01T01:04:09.103Z,21.20
2023-01-01T01:05:08.920Z,23.00
2023-01-01T01:06:08.901Z,13.60
2023-01-01T01:07:09.074Z,21.00
2023-01-01T01:08:08.880Z,12.40
2023-01-01T01:09:08.871Z,18.40
2023-01-01T01:10:08.869Z,18.30
2023-01-01T01:11:08.848Z,17.70
2023-01-01T01:12:18.142Z,15.50
2023-01-01T01:13:09.829Z,13.20
2023-01-01T01:14:08.980Z,21.80
2023-01-01T01:15:08.800Z,15.10
2023-01-01T01:16:08.798Z,15.80
2023-01-01T01:17:08.799Z,14.20
2023-01-01T01:18:08.739Z,16.90
2023-01-01T01:19:08.918Z,16.10
2023-01-01T01:20:08.717Z,13.10
2023-01-01T01:21:08.724Z,15.80
2023-01-01T01:22:08.867Z,16.30
2023-01-01T01:23:08.715Z,12.50
2023-01-01T01:24:08.676Z,16.00
2023-01-01T01:25:08.660Z,14.80
2023-01-01T01:26:08.649Z,15.20
2023-01-01T01:27:08.806Z,14.50
2023-01-01T01:28:08.630Z,13.70
2023-01-01T01:29:08.612Z,15.70
2023-01-01T01:30:08.600Z,14.20
2023-01-01T01:31:08.626Z,14.10
2023-01-01T01:32:08.737Z,12.10
2023-01-01T01:33:08.587Z,11.10
2023-01-01T01:34:12.187Z,13.00
2023-01-01T01:35:09.542Z,11.60
2023-01-01T01:36:08.532Z,10.50
2023-01-01T01:37:08.705Z,10.20
2023-01-01T01:38:08.665Z,13.30
2023-01-01T01:39:08.486Z,13.70
2023-01-01T01:40:08.465Z,16.70
2023-01-01T01:41:08.482Z,14.40
2023-01-01T01:42:08.446Z,17.40
2023-01-01T01:43:08.605Z,11.10
2023-01-01T01:44:08.425Z,13.20
2023-01-01T01:45:08.457Z,12.40
2023-01-01T01:46:08.462Z,9.70
2023-01-01T01:47:08.554Z,8.90
2023-01-01T01:48:08.369Z,6.90
2023-01-01T01:49:08.383Z,13.40
2023-01-01T01:50:08.344Z,10.00
2023-01-01T01:51:08.507Z,10.20
2023-01-01T01:52:08.316Z,6.50
2023-01-01T01:53:08.497Z,9.30
2023-01-01T01:54:08.282Z,6.20
2023-01-01T01:55:08.296Z,8.10
2023-01-01T01:56:08.279Z,6.70
2023-01-01T01:57:08.253Z,10.50
2023-01-01T01:58:08.413Z,7.70
2023-01-01T01:59:08.229Z,7.90
2023-01-01T02:00:11.194Z,7.20
2023-01-01T02:01:08.304Z,7.20
2023-01-01T02:02:08.267Z,8.90
2023-01-01T02:03:08.400Z,8.60
2023-01-01T02:04:08.361Z,10.40
2023-01-01T02:05:08.150Z,8.40
2023-01-01T02:06:08.147Z,7.60
2023-01-01T02:07:08.142Z,7.10
2023-01-01T02:08:08.123Z,7.80
2023-01-01T02:09:08.286Z,6.90
2023-01-01T02:10:08.104Z,7.00
2023-01-01T02:11:08.088Z,7.80
2023-01-01T02:12:08.069Z,6.90
2023-01-01T02:13:08.046Z,5.30
2023-01-01T02:14:08.234Z,7.50
2023-01-01T02:15:08.044Z,5.90
2023-01-01T02:16:08.072Z,7.20
2023-01-01T02:17:08.002Z,4.90
2023-01-01T02:18:07.991Z,6.60
2023-01-01T02:19:08.160Z,6.30
2023-01-01T02:20:07.965Z,4.70
2023-01-01T02:21:07.962Z,4.60
2023-01-01T02:22:07.931Z,4.70
2023-01-01T02:23:07.921Z,7.20
2023-01-01T02:24:08.080Z,5.60
2023-01-01T02:25:07.913Z,6.60
2023-01-01T02:26:07.889Z,3.90
2023-01-01T02:27:07.860Z,8.40
2023-01-01T02:28:07.858Z,3.30
2023-01-01T02:29:07.851Z,3.30
2023-01-01T02:30:08.030Z,6.00
2023-01-01T02:31:08.028Z,8.10
2023-01-01T02:32:07.810Z,4.10
2023-01-01T02:33:07.790Z,5.30
2023-01-01T02:34:07.778Z,3.80
2023-01-01T02:35:07.760Z,3.50
2023-01-01T02:36:07.784Z,1.60
2023-01-01T02:37:07.939Z,4.70
2023-01-01T02:38:07.742Z,5.70
2023-01-01T02:39:07.718Z,5.90
2023-01-01T02:40:07.698Z,4.50
2023-01-01T02:41:07.682Z,5.30
2023-01-01T02:42:07.863Z,3.00
2023-01-01T02:43:07.656Z,6.70
2023-01-01T02:44:36.738Z,5.00
2023-01-01T02:45:36.676Z,3.20
2023-01-01T02:46:36.673Z,3.30
2023-01-01T02:47:36.812Z,7.60
2023-01-01T02:48:36.635Z,4.90
2023-01-01T02:49:36.647Z,3.40
2023-01-01T02:50:36.607Z,2.40
2023-01-01T02:51:36.581Z,2.80
2023-01-01T02:52:36.576Z,3.70
2023-01-01T02:53:36.564Z,3.60
2023-01-01T02:54:36.551Z,5.10
2023-01-01T02:55:36.528Z,2.00
2023-01-01T02:56:36.518Z,3.40
2023-01-01T02:57:36.487Z,2.80
2023-01-01T02:58:36.488Z,5.00
2023-01-01T02:59:36.675Z,2.30
2023-01-01T03:00:36.499Z,7.40
2023-01-01T03:01:36.552Z,4.80
2023-01-01T03:02:36.498Z,2.70
2023-01-01T03:03:36.445Z,1.80
2023-01-01T03:04:36.426Z,2.00
2023-01-01T03:05:36.384Z,3.50
2023-01-01T03:06:36.392Z,2.80
2023-01-01T03:07:36.364Z,3.30
2023-01-01T03:08:36.395Z,5.30
2023-01-01T03:09:36.523Z,4.30
2023-01-01T03:10:36.341Z,2.60
2023-01-01T03:11:36.337Z,3.10
2023-01-01T03:12:36.309Z,4.20
2023-01-01T03:13:36.329Z,2.90
2023-01-01T03:14:36.333Z,6.70
2023-01-01T03:15:36.486Z,3.80
2023-01-01T03:16:36.560Z,4.90
2023-01-01T03:17:36.250Z,2.60
2023-01-01T03:18:36.248Z,4.70
2023-01-01T03:19:36.225Z,3.20
2023-01-01T03:20:36.209Z,2.70
2023-01-01T03:21:36.207Z,4.80
2023-01-01T03:23:09.387Z,7.30
2023-01-01T03:24:09.379Z,4.40
2023-01-01T03:25:09.375Z,5.90
2023-01-01T03:26:09.375Z,3.40
2023-01-01T03:27:09.369Z,4.60
2023-01-01T03:28:09.356Z,3.10
2023-01-01T03:29:09.319Z,4.90
2023-01-01T03:30:09.306Z,4.80
2023-01-01T03:31:09.316Z,3.20
2023-01-01T03:32:09.469Z,5.50
2023-01-01T03:33:09.549Z,2.00
2023-01-01T03:34:09.246Z,1.80
2023-01-01T03:35:09.253Z,2.80
2023-01-01T03:36:09.215Z,2.30
2023-01-01T03:37:09.210Z,1.60
2023-01-01T03:38:09.391Z,4.30
2023-01-01T03:39:09.186Z,5.40
2023-01-01T03:40:09.175Z,2.80
2023-01-01T03:41:09.167Z,1.20
2023-01-01T03:42:09.165Z,4.80
2023-01-01T03:43:09.137Z,1.40
2023-01-01T03:44:09.291Z,6.50
2023-01-01T03:45:09.114Z,4.50
2023-01-01T03:46:09.174Z,3.60
2023-01-01T03:47:09.092Z,3.50
2023-01-01T03:48:09.064Z,5.80
2023-01-01T03:49:09.245Z,3.10
2023-01-01T03:50:09.046Z,2.30
2023-01-01T03:51:09.065Z,2.80
2023-01-01T03:52:09.015Z,6.70
2023-01-01T03:53:09.034Z,2.60
2023-01-01T03:54:09.172Z,2.30
2023-01-01T03:55:08.994Z,3.40
2023-01-01T03:56:09.135Z,4.20
2023-01-01T03:57:08.971Z,4.60
2023-01-01T03:58:08.943Z,3.80
2023-01-01T03:59:09.125Z,3.50
2023-01-01T04:00:08.977Z,4.70
2023-01-01T04:01:08.955Z,2.30
2023-01-01T04:02:08.988Z,5.00
2023-01-01T04:03:09.137Z,4.30
2023-01-01T04:04:08.920Z,4.20
2023-01-01T04:05:08.860Z,3.30
2023-01-01T04:06:08.890Z,2.90
2023-01-01T04:07:15.561Z,2.90
2023-01-01T04:08:10.039Z,1.40
2023-01-01T04:09:08.840Z,1.40
2023-01-01T04:10:08.801Z,2.30
2023-01-01T04:11:08.783Z,2.70
2023-01-01T04:12:08.771Z,2.30
2023-01-01T04:13:08.933Z,4.60
2023-01-01T04:14:08.748Z,4.00
2023-01-01T04:15:08.733Z,2.60
2023-01-01T04:16:08.773Z,5.00
2023-01-01T04:17:08.710Z,5.50
2023-01-01T04:18:08.903Z,5.80
2023-01-01T04:19:08.690Z,2.30
2023-01-01T04:20:08.662Z,4.40
2023-01-01T04:21:08.669Z,4.20
2023-01-01T04:22:08.646Z,4.00
2023-01-01T04:23:08.811Z,2.40
2023-01-01T04:24:08.798Z,1.70
2023-01-01T04:25:08.616Z,5.20
2023-01-01T04:26:08.589Z,3.20
2023-01-01T04:27:08.591Z,3.00
2023-01-01T04:28:08.573Z,4.10
2023-01-01T04:29:08.731Z,4.00
2023-01-01T04:30:08.553Z,3.10
2023-01-01T04:31:08.540Z,3.30
2023-01-01T04:32:08.518Z,3.80
2023-01-01T04:33:08.500Z,4.10
2023-01-01T04:34:08.498Z,2.10
2023-01-01T04:35:08.666Z,2.50
2023-01-01T04:36:08.469Z,1.80
2023-01-01T04:37:13.156Z,2.30
2023-01-01T04:38:09.447Z,1.50
2023-01-01T04:39:08.428Z,5.40
2023-01-01T04:40:08.429Z,3.90
2023-01-01T04:41:08.407Z,4.70
2023-01-01T04:42:08.581Z,2.90
2023-01-01T04:43:08.378Z,2.60
2023-01-01T04:44:08.365Z,2.90
2023-01-01T04:45:08.361Z,4.00
2023-01-01T04:46:08.354Z,3.50
2023-01-01T04:47:08.350Z,3.90
2023-01-01T04:48:08.361Z,5.90
2023-01-01T04:49:08.308Z,5.90
2023-01-01T04:50:08.451Z,2.40
2023-01-01T04:51:08.276Z,1.90
2023-01-01T04:52:08.264Z,5.10
2023-01-01T04:53:08.425Z,6.00
2023-01-01T04:54:08.239Z,4.30
2023-01-01T04:55:08.238Z,4.10
2023-01-01T04:56:08.206Z,6.70
2023-01-01T04:57:08.199Z,4.10
2023-01-01T04:58:08.370Z,2.80
2023-01-01T04:59:08.176Z,3.90
2023-01-01T05:00:08.160Z,4.60
2023-01-01T05:01:08.249Z,3.80
2023-01-01T05:02:08.195Z,4.80
2023-01-01T05:03:08.314Z,3.90
2023-01-01T05:04:08.133Z,2.70
2023-01-01T05:05:08.126Z,2.30
2023-01-01T05:06:08.085Z,4.20
2023-01-01T05:07:08.073Z,6.20
2023-01-01T05:08:08.223Z,3.90
2023-01-01T05:09:08.225Z,1.80
2023-01-01T05:10:08.037Z,2.70
2023-01-01T05:11:08.028Z,3.50
2023-01-01T05:12:08.003Z,2.80
2023-01-01T05:13:07.995Z,3.90
2023-01-01T05:14:08.173Z,9.40
2023-01-01T05:15:07.963Z,5.60
2023-01-01T05:16:07.963Z,3.20
2023-01-01T05:17:07.952Z,3.40
2023-01-01T05:18:07.924Z,1.40
2023-01-01T05:19:08.102Z,4.90
2023-01-01T05:20:08.082Z,4.50
2023-01-01T05:21:07.900Z,2.30
2023-01-01T05:22:10.927Z,5.20
2023-01-01T05:23:07.862Z,6.20
2023-01-01T05:24:07.878Z,3.30
2023-01-01T05:25:08.012Z,3.60
2023-01-01T05:26:08.012Z,3.40
2023-01-01T05:27:07.811Z,3.70
2023-01-01T05:28:07.792Z,4.30
2023-01-01T05:29:13.668Z,3.60
2023-01-01T05:30:08.960Z,2.60
2023-01-01T05:31:07.770Z,1.90
2023-01-01T05:32:41.149Z,2.90
2023-01-01T05:33:41.129Z,1.90
2023-01-01T05:35:10.160Z,2.70
2023-01-01T05:36:10.106Z,2.30
2023-01-01T05:37:10.260Z,8.50
2023-01-01T05:38:10.105Z,3.10
2023-01-01T05:39:10.233Z,4.90
2023-01-01T05:40:10.084Z,4.90
2023-01-01T05:41:10.041Z,3.00
2023-01-01T05:42:10.206Z,3.10
2023-01-01T05:43:10.021Z,5.40
2023-01-01T05:44:10.216Z,1.60
2023-01-01T05:45:09.992Z,5.00
2023-01-01T05:46:10.004Z,2.10
2023-01-01T05:47:09.962Z,1.40
2023-01-01T05:48:09.956Z,4.20
2023-01-01T05:49:10.135Z,3.50
2023-01-01T05:50:38.968Z,3.80
2023-01-01T05:52:07.974Z,3.30
2023-01-01T05:53:08.104Z,4.10
2023-01-01T05:54:42.097Z,3.00
2023-01-01T05:55:42.086Z,2.40
2023-01-01T05:56:42.075Z,3.40
2023-01-01T05:57:42.064Z,1.60
2023-01-01T05:58:42.205Z,2.20
2023-01-01T05:59:42.036Z,4.00
2023-01-01T06:00:42.027Z,3.90
2023-01-01T06:01:45.768Z,6.70
2023-01-01T06:02:42.005Z,2.00
2023-01-01T06:03:42.198Z,4.10
2023-01-01T06:04:42.011Z,1.80
2023-01-01T06:05:41.957Z,2.30
2023-01-01T06:06:41.938Z,3.80
2023-01-01T06:07:48.021Z,2.00
2023-01-01T06:08:43.087Z,3.40
2023-01-01T06:09:41.897Z,10.50
2023-01-01T06:10:41.885Z,3.90
2023-01-01T06:11:41.892Z,3.60
2023-01-01T06:12:41.884Z,2.40
2023-01-01T06:13:41.855Z,2.10
2023-01-01T06:14:42.033Z,3.90
2023-01-01T06:15:41.829Z,4.60
2023-01-01T06:16:41.862Z,1.70
2023-01-01T06:17:41.794Z,2.30
2023-01-01T06:18:41.984Z,2.50
2023-01-01T06:19:41.788Z,3.50
2023-01-01T06:20:41.930Z,3.00
2023-01-01T06:21:41.769Z,3.30
2023-01-01T06:22:41.739Z,4.30
2023-01-01T06:23:41.747Z,3.30
2023-01-01T06:24:41.703Z,4.90
2023-01-01T06:25:41.875Z,2.40
2023-01-01T06:26:41.672Z,4.80
2023-01-01T06:27:41.696Z,5.10
2023-01-01T06:28:41.652Z,6.00
2023-01-01T06:29:41.812Z,3.20
2023-01-01T06:30:41.675Z,1.80
2023-01-01T06:31:41.640Z,3.70
2023-01-01T06:32:41.620Z,2.10
2023-01-01T06:33:41.581Z,6.80
2023-01-01T06:34:41.759Z,1.90
2023-01-01T06:35:41.575Z,4.70
2023-01-01T06:36:41.550Z,2.60
2023-01-01T06:37:41.539Z,4.10
2023-01-01T06:38:41.701Z,6.20
2023-01-01T06:39:41.525Z,2.40
2023-01-01T06:40:41.498Z,3.10
2023-01-01T06:41:41.489Z,5.30
2023-01-01T06:42:41.477Z,3.70
2023-01-01T06:43:41.630Z,4.60
2023-01-01T06:44:41.469Z,4.00
2023-01-01T06:45:41.460Z,5.30
2023-01-01T06:46:41.524Z,3.50
2023-01-01T06:47:41.409Z,4.20
2023-01-01T06:48:41.389Z,9.00
2023-01-01T06:49:41.399Z,4.50
2023-01-01T06:50:41.359Z,2.40
2023-01-01T06:51:41.364Z,3.50
2023-01-01T06:52:41.351Z,2.90
2023-01-01T06:53:41.337Z,2.70
2023-01-01T06:54:41.479Z,3.30
2023-01-01T06:55:41.298Z,2.70
2023-01-01T06:56:41.275Z,4.50
2023-01-01T06:57:41.267Z,3.70
2023-01-01T06:58:41.264Z,3.40
2023-01-01T06:59:41.418Z,5.50
2023-01-01T07:00:41.246Z,2.60
2023-01-01T07:01:44.293Z,2.40
2023-01-01T07:02:41.394Z,4.90
2023-01-01T07:03:41.229Z,5.70
2023-01-01T07:04:41.195Z,7.70
2023-01-01T07:05:41.164Z,3.80
2023-01-01T07:06:41.165Z,3.90
2023-01-01T07:07:41.141Z,5.60
2023-01-01T07:08:41.309Z,6.10
2023-01-01T07:09:41.115Z,3.30
2023-01-01T07:10:41.119Z,1.30
2023-01-01T07:11:41.106Z,3.30
2023-01-01T07:12:41.087Z,6.40
2023-01-01T07:13:41.246Z,5.70
2023-01-01T07:14:41.074Z,3.10
2023-01-01T07:15:41.064Z,2.20
2023-01-01T07:16:41.153Z,4.80
2023-01-01T07:17:41.035Z,1.40
2023-01-01T07:18:41.026Z,5.10
2023-01-01T07:19:41.000Z,2.00
2023-01-01T07:20:40.974Z,3.30
2023-01-01T07:21:40.961Z,2.70
2023-01-01T07:22:41.138Z,6.30
2023-01-01T07:23:40.943Z,4.50
2023-01-01T07:24:40.935Z,3.70
2023-01-01T07:25:40.914Z,3.70
2023-01-01T07:26:40.926Z,4.50
2023-01-01T07:27:40.885Z,2.50
2023-01-01T07:28:41.049Z,5.30
2023-01-01T07:29:40.859Z,4.50
2023-01-01T07:30:40.850Z,2.40
2023-01-01T07:31:40.987Z,4.50
2023-01-01T07:32:41.021Z,1.70
2023-01-01T07:33:40.802Z,3.10
2023-01-01T07:34:42.954Z,4.90
2023-01-01T07:35:41.780Z,2.50
2023-01-01T07:36:40.775Z,5.40
2023-01-01T07:37:40.765Z,2.10
2023-01-01T07:38:40.751Z,2.90
2023-01-01T07:39:40.901Z,2.40
2023-01-01T07:40:40.727Z,4.60
2023-01-01T07:41:40.721Z,3.40
2023-01-01T07:42:40.702Z,3.70
2023-01-01T07:43:40.682Z,5.20
2023-01-01T07:44:40.838Z,4.10
2023-01-01T07:45:40.654Z,3.10
2023-01-01T07:46:40.685Z,2.90
2023-01-01T07:47:40.809Z,5.30
2023-01-01T07:48:40.610Z,4.80
2023-01-01T07:49:40.600Z,2.50
2023-01-01T07:50:40.765Z,4.90
2023-01-01T07:51:40.591Z,2.30
2023-01-01T07:52:40.743Z,5.10
2023-01-01T07:53:40.544Z,2.10
2023-01-01T07:54:40.552Z,4.50
2023-01-01T07:55:40.528Z,3.40
2023-01-01T07:56:40.548Z,4.80
2023-01-01T07:57:40.710Z,5.50
2023-01-01T07:58:40.497Z,4.10
2023-01-01T07:59:40.468Z,4.60
2023-01-01T08:00:40.498Z,6.60
2023-01-01T08:01:40.708Z,4.20
2023-01-01T08:02:40.509Z,4.40
2023-01-01T08:03:40.443Z,4.00
2023-01-01T08:04:40.577Z,7.20
2023-01-01T08:05:40.388Z,1.80
2023-01-01T08:06:40.378Z,8.40
2023-01-01T08:07:40.357Z,3.40
2023-01-01T08:08:40.561Z,2.40
2023-01-01T08:09:40.335Z,5.40
2023-01-01T08:10:40.328Z,5.50
2023-01-01T08:11:40.307Z,4.40
2023-01-01T08:12:40.297Z,3.60
2023-01-01T08:13:40.308Z,4.50
2023-01-01T08:14:40.454Z,3.00
2023-01-01T08:15:40.397Z,4.00
2023-01-01T08:16:40.296Z,4.10
2023-01-01T08:17:46.119Z,4.30
2023-01-01T08:18:41.221Z,3.50
2023-01-01T08:19:40.237Z,9.10
2023-01-01T08:20:40.373Z,4.90
2023-01-01T08:21:40.193Z,6.80
2023-01-01T08:22:40.336Z,6.20
2023-01-01T08:23:40.175Z,7.40
2023-01-01T08:24:40.148Z,5.40
2023-01-01T08:25:40.117Z,3.70
2023-01-01T08:26:40.112Z,4.10
2023-01-01T08:27:40.113Z,5.00
2023-01-01T08:28:40.085Z,4.80
2023-01-01T08:29:40.246Z,9.20
2023-01-01T08:30:40.070Z,2.50
2023-01-01T08:31:40.246Z,6.00
2023-01-01T08:32:40.063Z,1.80
2023-01-01T08:33:40.048Z,3.30
2023-01-01T08:34:40.034Z,8.30
2023-01-01T08:35:39.995Z,5.60
2023-01-01T08:36:40.235Z,4.80
2023-01-01T08:37:39.969Z,10.50
2023-01-01T08:38:39.966Z,5.60
2023-01-01T08:39:39.945Z,4.80
2023-01-01T08:40:40.145Z,6.90
2023-01-01T08:41:39.914Z,7.10
2023-01-01T08:42:39.929Z,4.70
2023-01-01T08:43:39.909Z,2.40
2023-01-01T08:44:39.887Z,5.50
2023-01-01T08:45:39.882Z,7.20
2023-01-01T08:46:40.084Z,2.30
2023-01-01T08:47:39.832Z,6.50
2023-01-01T08:48:39.824Z,4.50
2023-01-01T08:49:39.814Z,4.20
2023-01-01T08:50:39.821Z,5.20
2023-01-01T08:51:39.991Z,4.90
2023-01-01T08:52:39.782Z,6.80
2023-01-01T08:53:41.989Z,1.90
2023-01-01T08:54:40.754Z,6.10
2023-01-01T08:55:39.743Z,7.30
2023-01-01T08:56:39.896Z,8.20
2023-01-01T08:57:39.726Z,2.60
2023-01-01T08:58:39.702Z,5.10
2023-01-01T08:59:39.691Z,3.80
2023-01-01T09:00:39.661Z,3.20
2023-01-01T09:01:40.015Z,5.70
2023-01-01T09:02:39.849Z,4.60
2023-01-01T09:03:39.653Z,5.80
2023-01-01T09:04:39.622Z,6.30
2023-01-01T09:05:39.600Z,6.90
2023-01-01T09:06:39.604Z,5.30
2023-01-01T09:07:39.748Z,5.40
2023-01-01T09:08:39.600Z,4.80
2023-01-01T09:09:39.726Z,6.20
2023-01-01T09:10:39.529Z,6.30
2023-01-01T09:11:39.532Z,5.40
2023-01-01T09:12:39.501Z,3.00
2023-01-01T09:13:39.496Z,3.50
2023-01-01T09:14:39.659Z,5.10
2023-01-01T09:15:39.502Z,5.00
2023-01-01T09:16:44.072Z,3.30
2023-01-01T09:17:40.451Z,5.30
2023-01-01T09:18:39.428Z,5.70
2023-01-01T09:19:39.589Z,2.00
2023-01-01T09:20:39.567Z,5.50
2023-01-01T09:21:39.399Z,3.90
2023-01-01T09:22:39.379Z,9.30
2023-01-01T09:23:39.369Z,5.90
2023-01-01T09:24:39.353Z,2.90
2023-01-01T09:25:39.357Z,7.20
2023-01-01T09:26:39.317Z,3.40
2023-01-01T09:27:39.305Z,4.50
2023-01-01T09:28:39.295Z,5.20
2023-01-01T09:29:39.296Z,1.90
2023-01-01T09:30:39.275Z,2.90
2023-01-01T09:31:39.495Z,3.30
2023-01-01T09:32:39.245Z,3.10
2023-01-01T09:33:39.242Z,3.20
2023-01-01T09:34:39.214Z,7.20
2023-01-01T09:35:39.206Z,5.20
2023-01-01T09:36:39.378Z,5.00
2023-01-01T09:37:39.174Z,4.90
2023-01-01T09:38:39.161Z,4.40
2023-01-01T09:39:39.148Z,5.30
2023-01-01T09:40:39.134Z,6.00
2023-01-01T09:41:39.129Z,3.90
2023-01-01T09:42:39.315Z,3.90
2023-01-01T09:43:39.274Z,5.60
2023-01-01T09:44:39.075Z,8.20
2023-01-01T09:45:39.144Z,3.60
2023-01-01T09:46:39.087Z,4.00
2023-01-01T09:47:39.061Z,5.20
2023-01-01T09:48:39.220Z,6.90
2023-01-01T09:49:39.054Z,8.10
2023-01-01T09:50:39.005Z,4.40
2023-01-01T09:51:46.968Z,2.80
2023-01-01T09:52:39.983Z,3.70
2023-01-01T09:53:39.013Z,4.00
2023-01-01T09:54:38.951Z,4.90
2023-01-01T09:55:39.124Z,5.60
2023-01-01T09:56:38.932Z,7.30
2023-01-01T09:57:38.913Z,3.80
2023-01-01T09:58:38.907Z,5.20
2023-01-01T09:59:39.051Z,4.20
2023-01-01T10:00:38.878Z,3.70
2023-01-01T10:01:39.112Z,6.50
2023-01-01T10:02:38.841Z,6.80
2023-01-01T10:03:38.886Z,6.00
2023-01-01T10:04:38.812Z,5.10
2023-01-01T10:05:38.834Z,3.10
2023-01-01T10:06:38.811Z,4.00
2023-01-01T10:07:38.801Z,3.70
2023-01-01T10:08:38.781Z,4.90
2023-01-01T10:09:38.760Z,3.70
2023-01-01T10:10:38.746Z,4.00
2023-01-01T10:11:38.751Z,6.40
2023-01-01T10:12:38.888Z,4.80
2023-01-01T10:13:38.891Z,4.20
2023-01-01T10:14:38.689Z,5.80
2023-01-01T10:15:38.680Z,6.70
2023-01-01T10:16:38.689Z,4.90
2023-01-01T10:17:38.653Z,11.70
2023-01-01T10:18:38.764Z,4.30
2023-01-01T10:19:38.633Z,2.20
2023-01-01T10:20:38.635Z,9.50
2023-01-01T10:21:42.109Z,3.10
2023-01-01T10:22:39.580Z,4.30
2023-01-01T10:23:38.760Z,5.60
2023-01-01T10:24:38.567Z,5.00
2023-01-01T10:25:38.548Z,2.60
2023-01-01T10:26:38.537Z,9.70
2023-01-01T10:27:38.519Z,8.70
2023-01-01T10:28:38.702Z,6.20
2023-01-01T10:29:38.497Z,5.20
2023-01-01T10:30:38.658Z,7.00
2023-01-01T10:31:38.585Z,7.00
2023-01-01T10:32:38.457Z,6.50
2023-01-01T10:33:38.457Z,3.20
2023-01-01T10:34:38.605Z,6.30
2023-01-01T10:35:38.427Z,9.50
2023-01-01T10:36:38.578Z,4.90
2023-01-01T10:37:38.409Z,4.70
2023-01-01T10:38:38.378Z,3.70
2023-01-01T10:39:38.407Z,5.70
2023-01-01T10:40:38.348Z,6.30
2023-01-01T10:41:38.506Z,5.90
2023-01-01T10:42:38.347Z,5.40
2023-01-01T10:43:38.375Z,7.60
2023-01-01T10:44:38.496Z,5.70
2023-01-01T10:45:38.320Z,3.10
2023-01-01T10:46:38.344Z,4.90
2023-01-01T10:47:38.263Z,5.10
2023-01-01T10:48:38.257Z,6.30
2023-01-01T10:49:38.436Z,2.60
2023-01-01T10:50:38.225Z,4.60
2023-01-01T10:51:38.216Z,3.10
2023-01-01T10:52:38.197Z,3.60
2023-01-01T10:53:38.201Z,7.20
2023-01-01T10:54:38.192Z,5.30
2023-01-01T10:55:38.171Z,8.20
2023-01-01T10:56:38.166Z,4.90
2023-01-01T10:57:38.167Z,6.20
2023-01-01T10:58:38.138Z,2.90
2023-01-01T10:59:38.119Z,4.80
2023-01-01T11:00:38.105Z,3.20
2023-01-01T11:01:38.114Z,4.40
2023-01-01T11:02:38.300Z,10.30
2023-01-01T11:03:38.066Z,3.60
2023-01-01T11:04:38.052Z,4.40
2023-01-01T11:05:38.466Z,6.50
2023-01-01T11:06:38.113Z,3.60
2023-01-01T11:07:38.139Z,5.30
2023-01-01T11:08:38.095Z,4.90
2023-01-01T11:09:38.148Z,2.70
2023-01-01T11:10:37.988Z,7.00
2023-01-01T11:11:37.957Z,4.30
2023-01-01T11:13:04.173Z,4.00
2023-01-01T11:13:38.931Z,6.40
2023-01-01T11:14:37.927Z,3.00
2023-01-01T11:15:37.892Z,5.20
2023-01-01T11:16:37.989Z,4.20
2023-01-01T11:17:37.917Z,6.80
2023-01-01T11:18:38.039Z,5.30
2023-01-01T11:19:37.844Z,3.20
2023-01-01T11:20:37.838Z,3.70
2023-01-01T11:21:37.833Z,3.90
2023-01-01T11:22:37.810Z,4.40
2023-01-01T11:23:37.975Z,2.60
2023-01-01T11:24:37.792Z,5.80
2023-01-01T11:25:37.772Z,8.60
2023-01-01T11:26:37.782Z,5.80
2023-01-01T11:27:37.740Z,10.40
2023-01-01T11:28:37.793Z,3.80
2023-01-01T11:29:37.720Z,3.70
2023-01-01T11:30:37.758Z,4.70
2023-01-01T11:31:37.750Z,2.90
2023-01-01T11:32:37.687Z,7.20
2023-01-01T11:33:37.904Z,5.70
2023-01-01T11:34:37.669Z,7.60
2023-01-01T11:35:37.656Z,7.30
2023-01-01T11:36:37.638Z,3.10
2023-01-01T11:37:37.609Z,10.30
2023-01-01T11:38:37.780Z,2.30
2023-01-01T11:39:37.762Z,5.60
2023-01-01T11:40:37.587Z,2.10
2023-01-01T11:41:37.566Z,6.40
2023-01-01T11:42:37.589Z,4.90
2023-01-01T11:43:37.538Z,4.00
2023-01-01T11:44:37.711Z,5.90
2023-01-01T11:45:38.125Z,7.30
2023-01-01T11:46:37.563Z,2.90
2023-01-01T11:47:37.487Z,6.90
2023-01-01T11:48:37.508Z,9.40
2023-01-01T11:49:37.483Z,6.10
2023-01-01T11:50:37.467Z,3.20
2023-01-01T11:51:37.441Z,3.90
2023-01-01T11:52:37.418Z,3.20
2023-01-01T11:53:37.408Z,2.00
2023-01-01T11:54:37.441Z,6.30
2023-01-01T11:55:37.406Z,9.80
2023-01-01T11:56:37.381Z,3.70
2023-01-01T11:57:37.358Z,4.50
2023-01-01T11:58:37.365Z,6.60
2023-01-01T11:59:37.360Z,6.40
2023-01-01T12:00:37.496Z,7.50
2023-01-01T12:01:37.356Z,5.30
2023-01-01T12:02:37.401Z,6.90
2023-01-01T12:03:37.338Z,7.40
2023-01-01T12:04:37.275Z,3.70
2023-01-01T12:05:37.426Z,7.60
2023-01-01T12:06:37.294Z,5.10
2023-01-01T12:07:37.226Z,3.90
2023-01-01T12:08:37.225Z,7.30
2023-01-01T12:09:37.204Z,4.60
2023-01-01T12:10:37.305Z,4.70
2023-01-01T12:11:37.204Z,7.90
2023-01-01T12:12:37.182Z,4.00
2023-01-01T12:13:37.184Z,5.40
2023-01-01T12:14:37.190Z,6.90
2023-01-01T12:15:37.166Z,5.80
2023-01-01T12:16:37.114Z,9.20
2023-01-01T12:17:37.141Z,6.50
2023-01-01T12:18:37.093Z,5.90
2023-01-01T12:19:37.082Z,8.40
2023-01-01T12:20:37.071Z,7.40
2023-01-01T12:21:37.055Z,4.50
2023-01-01T12:22:37.043Z,5.40
2023-01-01T12:23:37.025Z,7.70
2023-01-01T12:24:37.027Z,4.90
2023-01-01T12:25:37.026Z,5.30
2023-01-01T12:26:36.990Z,8.90
2023-01-01T12:27:37.081Z,6.90
2023-01-01T12:28:36.953Z,7.60
2023-01-01T12:29:36.955Z,9.50
2023-01-01T12:30:37.075Z,5.60
2023-01-01T12:31:36.970Z,4.30
2023-01-01T12:32:36.910Z,4.60
2023-01-01T12:33:36.889Z,6.70
2023-01-01T12:34:36.887Z,4.60
2023-01-01T12:35:36.891Z,5.10
2023-01-01T12:36:36.892Z,6.40
2023-01-01T12:37:36.883Z,5.80
2023-01-01T12:38:36.829Z,6.00
2023-01-01T12:39:36.823Z,3.70
2023-01-01T12:40:36.861Z,6.20
2023-01-01T12:41:36.988Z,3.50
2023-01-01T12:42:36.782Z,3.70
2023-01-01T12:43:36.767Z,3.80
2023-01-01T12:44:36.757Z,4.30
2023-01-01T12:45:36.745Z,6.40
2023-01-01T12:46:36.791Z,5.70
2023-01-01T12:47:36.954Z,6.40
2023-01-01T12:48:36.729Z,5.50
2023-01-01T12:49:36.726Z,9.70
2023-01-01T12:50:36.709Z,7.80
2023-01-01T12:51:36.679Z,7.00
2023-01-01T12:52:36.688Z,4.70
2023-01-01T12:53:36.642Z,10.20
2023-01-01T12:54:36.629Z,4.40
2023-01-01T12:55:36.616Z,4.30
2023-01-01T12:56:36.606Z,3.60
2023-01-01T12:57:36.797Z,4.30
2023-01-01T12:58:36.597Z,7.00
2023-01-01T12:59:36.566Z,5.90
2023-01-01T13:00:36.539Z,5.20
2023-01-01T13:01:36.646Z,8.70
2023-01-01T13:02:36.653Z,4.30
2023-01-01T13:03:36.707Z,1.30
2023-01-01T13:04:36.483Z,5.50
2023-01-01T13:05:36.529Z,3.70
2023-01-01T13:06:36.467Z,4.30
2023-01-01T13:07:36.634Z,4.40
2023-01-01T13:08:36.460Z,5.50
2023-01-01T13:09:36.459Z,10.70
2023-01-01T13:10:36.419Z,8.20
2023-01-01T13:11:41.388Z,8.00
2023-01-01T13:12:37.558Z,3.20
2023-01-01T13:13:36.545Z,3.80
2023-01-01T13:14:36.366Z,6.10
2023-01-01T13:15:36.385Z,6.50
2023-01-01T13:16:36.355Z,4.10
2023-01-01T13:17:36.336Z,8.40